createdAt,value
2019-05-26T00:01:51.187Z,1.20
2019-05-26T00:04:20.485Z,1.40
2019-05-26T00:06:49.788Z,1.23
2019-05-26T00:09:19.167Z,1.27
2019-05-26T00:11:50.500Z,1.37
2019-05-26T00:14:19.793Z,1.10
2019-05-26T00:16:49.107Z,1.00
2019-05-26T00:19:18.416Z,1.13
2019-05-26T00:21:47.743Z,1.50
2019-05-26T00:24:35.939Z,1.20
2019-05-26T00:27:05.235Z,1.10
2019-05-26T00:29:34.533Z,0.97
2019-05-26T00:32:03.852Z,1.27
2019-05-26T00:34:34.038Z,1.10
2019-05-26T00:37:03.332Z,1.27
2019-05-26T00:39:32.609Z,1.20
2019-05-26T00:42:01.914Z,1.47
2019-05-26T00:44:31.206Z,1.50
2019-05-26T00:47:00.496Z,1.47
2019-05-26T00:49:29.790Z,1.27
2019-05-26T00:51:59.073Z,1.40
2019-05-26T00:54:28.425Z,0.97
2019-05-26T00:56:57.749Z,1.57
2019-05-26T00:59:27.006Z,1.07
2019-05-26T01:01:56.616Z,1.27
2019-05-26T01:04:39.307Z,1.67
2019-05-26T01:07:08.603Z,1.13
2019-05-26T01:09:37.923Z,1.00
2019-05-26T01:12:07.214Z,1.07
2019-05-26T01:14:36.538Z,1.20
2019-05-26T01:17:05.832Z,1.27
2019-05-26T01:19:54.175Z,1.43
2019-05-26T01:22:23.466Z,1.30
2019-05-26T01:24:52.759Z,1.00
2019-05-26T01:27:22.121Z,1.30
2019-05-26T01:29:51.458Z,1.20
2019-05-26T01:32:20.825Z,1.53
2019-05-26T01:35:09.363Z,1.10
2019-05-26T01:37:59.087Z,1.47
2019-05-26T01:43:52.011Z,1.00
2019-05-26T01:46:21.316Z,1.20
2019-05-26T01:48:50.604Z,1.30
2019-05-26T01:51:20.035Z,1.40
2019-05-26T01:53:49.331Z,1.20
2019-05-26T01:56:18.654Z,1.20
2019-05-26T01:58:47.942Z,1.27
2019-05-26T02:01:17.255Z,1.40
2019-05-26T02:03:46.569Z,1.00
2019-05-26T02:11:59.986Z,1.17
2019-05-26T02:14:29.268Z,1.27
2019-05-26T02:16:58.592Z,1.03
2019-05-26T02:19:27.884Z,1.23
2019-05-26T02:21:57.183Z,1.20
2019-05-26T02:24:26.494Z,1.20
2019-05-26T02:26:55.777Z,1.60
2019-05-26T02:29:25.077Z,1.20
2019-05-26T02:31:54.383Z,1.13
2019-05-26T02:34:23.666Z,1.07
2019-05-26T02:36:53.002Z,1.17
2019-05-26T02:39:22.283Z,1.30
2019-05-26T02:41:51.577Z,1.57
2019-05-26T02:44:20.889Z,1.30
2019-05-26T02:46:50.161Z,1.60
2019-05-26T02:49:19.451Z,1.47
2019-05-26T02:52:07.790Z,1.40
2019-05-26T02:54:37.097Z,2.00
2019-05-26T02:57:06.374Z,1.67
2019-05-26T02:59:35.718Z,1.67
2019-05-26T03:02:05.172Z,1.30
2019-05-26T03:04:34.466Z,1.27
2019-05-26T03:07:03.769Z,1.60
2019-05-26T03:15:49.083Z,1.10
2019-05-26T03:18:18.789Z,1.37
2019-05-26T03:20:48.182Z,1.70
2019-05-26T03:23:56.794Z,1.60
2019-05-26T03:26:46.722Z,1.17
2019-05-26T03:29:16.038Z,1.33
2019-05-26T03:31:45.330Z,1.40
2019-05-26T03:34:14.610Z,1.70
2019-05-26T03:36:43.938Z,1.50
2019-05-26T03:39:13.222Z,1.27
2019-05-26T03:41:42.511Z,1.47
2019-05-26T03:44:11.814Z,1.43
2019-05-26T03:49:29.351Z,1.20
2019-05-26T03:51:58.631Z,0.90
2019-05-26T03:54:27.929Z,1.30
2019-05-26T03:56:57.204Z,1.50
2019-05-26T03:59:26.501Z,1.03
2019-05-26T04:01:57.456Z,1.30
2019-05-26T04:04:26.797Z,1.30
2019-05-26T04:06:56.145Z,1.17
2019-05-26T04:12:13.711Z,1.50
2019-05-26T04:14:42.986Z,1.80
2019-05-26T04:17:12.268Z,1.60
2019-05-26T04:19:41.590Z,1.03
2019-05-26T04:24:59.163Z,1.53
2019-05-26T04:27:28.447Z,1.87
2019-05-26T04:29:57.730Z,1.70
2019-05-26T04:32:27.057Z,1.30
2019-05-26T04:34:56.353Z,1.13
2019-05-26T04:37:25.663Z,1.60
2019-05-26T04:39:54.959Z,1.50
2019-05-26T04:42:24.247Z,1.50
2019-05-26T04:45:12.677Z,1.07
2019-05-26T04:47:41.968Z,1.17
2019-05-26T04:50:11.383Z,1.30
2019-05-26T04:52:40.673Z,1.27
2019-05-26T04:55:10.288Z,1.07
2019-05-26T04:57:39.584Z,1.30
2019-05-26T05:00:48.207Z,1.47
2019-05-26T05:03:17.488Z,1.20
2019-05-26T05:05:46.792Z,1.53
2019-05-26T05:08:16.069Z,0.80
2019-05-26T05:10:45.349Z,1.30
2019-05-26T05:13:14.645Z,1.00
2019-05-26T05:15:43.927Z,1.00
2019-05-26T05:18:13.224Z,1.03
2019-05-26T05:20:42.831Z,1.10
2019-05-26T05:23:12.138Z,1.20
2019-05-26T05:25:41.432Z,1.40
2019-05-26T05:28:10.712Z,0.93
2019-05-26T05:30:40.012Z,0.90
2019-05-26T05:33:09.309Z,1.20
2019-05-26T05:35:38.659Z,1.10
2019-05-26T05:38:07.940Z,0.87
2019-05-26T05:40:37.249Z,1.00
2019-05-26T05:43:06.550Z,1.10
2019-05-26T05:45:35.872Z,1.00
2019-05-26T05:48:05.320Z,1.00
2019-05-26T05:50:34.599Z,1.00
2019-05-26T05:53:03.889Z,0.90
2019-05-26T05:55:33.162Z,0.60
2019-05-26T05:58:02.465Z,0.80
2019-05-26T06:00:31.758Z,1.20
2019-05-26T06:03:01.035Z,0.80
2019-05-26T06:05:30.332Z,1.00
2019-05-26T06:07:59.619Z,1.37
2019-05-26T06:10:28.929Z,0.87
2019-05-26T06:12:58.241Z,1.07
2019-05-26T06:15:27.517Z,1.13
2019-05-26T06:17:56.809Z,1.20
2019-05-26T06:20:26.091Z,0.87
2019-05-26T06:22:55.461Z,0.80
2019-05-26T06:25:24.745Z,0.90
2019-05-26T06:27:54.026Z,1.10
2019-05-26T06:31:02.651Z,1.10
2019-05-26T06:33:31.956Z,0.70
2019-05-26T06:36:20.238Z,0.80
2019-05-26T06:41:33.429Z,0.57
2019-05-26T06:43:55.343Z,0.83
2019-05-26T06:46:24.619Z,0.87
2019-05-26T06:48:53.904Z,1.10
2019-05-26T06:51:42.204Z,0.80
2019-05-26T06:54:11.507Z,0.90
2019-05-26T06:56:40.787Z,0.50
2019-05-26T07:01:44.759Z,0.90
2019-05-26T07:04:14.063Z,0.57
2019-05-26T07:06:43.369Z,0.73
2019-05-26T07:09:12.636Z,0.50
2019-05-26T07:11:55.605Z,0.80
2019-05-26T07:14:12.984Z,0.70
2019-05-26T07:16:44.355Z,0.53
2019-05-26T07:19:13.705Z,0.60
2019-05-26T07:24:31.319Z,1.17
2019-05-26T07:27:00.688Z,0.67
2019-05-26T07:29:29.986Z,0.83
2019-05-26T07:32:00.913Z,0.70
2019-05-26T07:34:30.381Z,0.73
2019-05-26T07:37:14.188Z,0.53
2019-05-26T07:42:19.307Z,0.90
2019-05-26T07:44:48.689Z,0.60
2019-05-26T07:53:15.223Z,0.53
2019-05-26T07:55:44.497Z,0.63
2019-05-26T07:58:13.791Z,0.40
2019-05-26T08:00:43.083Z,0.40
2019-05-26T08:03:12.464Z,0.40
2019-05-26T08:05:41.754Z,0.50
2019-05-26T08:08:13.092Z,0.60
2019-05-26T08:10:42.116Z,0.53
2019-05-26T08:13:11.402Z,0.43
2019-05-26T08:15:40.699Z,0.43
2019-05-26T08:18:10.010Z,0.70
2019-05-26T08:23:48.899Z,0.70
2019-05-26T08:26:37.189Z,0.70
2019-05-26T08:29:06.528Z,0.60
2019-05-26T08:31:35.821Z,0.60
2019-05-26T08:34:05.146Z,0.70
2019-05-26T08:36:34.429Z,0.50
2019-05-26T08:41:58.455Z,0.83
2019-05-26T08:44:27.753Z,0.80
2019-05-26T08:46:57.037Z,0.90
2019-05-26T08:49:45.291Z,0.70
2019-05-26T08:52:14.607Z,0.70
2019-05-26T08:54:43.899Z,0.67
2019-05-26T08:57:13.224Z,0.80
2019-05-26T08:59:44.233Z,0.70
2019-05-26T09:02:13.562Z,0.53
2019-05-26T09:04:42.862Z,0.50
2019-05-26T09:07:12.158Z,0.50
2019-05-26T09:09:41.515Z,0.63
2019-05-26T09:12:29.899Z,0.95
2019-05-26T09:14:59.233Z,0.77
2019-05-26T09:17:28.554Z,0.77
2019-05-26T09:19:57.973Z,0.60
2019-05-26T09:22:27.331Z,0.42
2019-05-26T09:24:56.678Z,0.50
2019-05-26T09:27:25.980Z,0.57
2019-05-26T09:29:55.310Z,0.70
2019-05-26T09:32:24.644Z,0.80
2019-05-26T09:34:54.068Z,0.70
2019-05-26T09:37:23.619Z,1.00
2019-05-26T09:39:52.955Z,0.67
2019-05-26T09:42:22.587Z,0.77
2019-05-26T09:44:53.363Z,0.57
2019-05-26T09:47:22.708Z,0.80
2019-05-26T09:49:52.036Z,0.50
2019-05-26T09:52:21.403Z,0.60
2019-05-26T09:54:50.734Z,0.70
2019-05-26T09:57:20.114Z,0.73
2019-05-26T09:59:49.470Z,0.73
2019-05-26T10:02:18.851Z,0.50
2019-05-26T10:04:48.212Z,1.13
2019-05-26T10:07:17.609Z,0.60
2019-05-26T10:10:05.812Z,0.90
2019-05-26T10:15:09.811Z,0.50
2019-05-26T10:17:39.195Z,0.60
2019-05-26T10:20:47.879Z,0.67
2019-05-26T10:23:17.226Z,0.70
2019-05-26T10:25:46.557Z,0.90
2019-05-26T10:28:15.932Z,0.55
2019-05-26T10:30:45.259Z,0.60
2019-05-26T10:36:02.927Z,0.80
2019-05-26T10:38:32.242Z,0.43
2019-05-26T10:41:01.562Z,0.83
2019-05-26T10:43:44.506Z,0.57
2019-05-26T10:46:01.963Z,0.70
2019-05-26T10:48:31.289Z,0.80
2019-05-26T10:51:00.605Z,0.50
2019-05-26T10:53:29.917Z,0.57
2019-05-26T10:55:59.220Z,0.60
2019-05-26T10:58:28.535Z,0.60
2019-05-26T11:00:57.855Z,0.80
2019-05-26T11:03:27.165Z,0.60
2019-05-26T11:05:56.493Z,0.80
2019-05-26T11:08:25.870Z,0.70
2019-05-26T11:10:55.181Z,1.10
2019-05-26T11:13:24.494Z,0.60
2019-05-26T11:15:53.830Z,0.57
2019-05-26T11:18:23.148Z,0.55
2019-05-26T11:20:52.565Z,0.80
2019-05-26T11:23:21.922Z,0.60
2019-05-26T11:25:51.276Z,0.50
2019-05-26T11:28:20.637Z,0.50
2019-05-26T11:30:49.949Z,0.60
2019-05-26T11:33:19.291Z,0.50
2019-05-26T11:35:48.621Z,0.55
2019-05-26T11:38:17.959Z,0.47
2019-05-26T11:40:47.798Z,0.62
2019-05-26T11:43:18.378Z,0.50
2019-05-26T11:45:47.879Z,0.35
2019-05-26T11:48:17.202Z,0.60
2019-05-26T11:50:46.563Z,0.90
2019-05-26T11:53:16.027Z,0.60
2019-05-26T11:55:45.393Z,0.50
2019-05-26T11:58:14.828Z,0.42
2019-05-26T12:03:34.139Z,0.60
2019-05-26T12:06:03.476Z,0.50
2019-05-26T12:08:32.798Z,0.50
2019-05-26T12:11:02.186Z,0.50
2019-05-26T12:13:31.496Z,0.80
2019-05-26T12:16:00.921Z,0.60
2019-05-26T12:18:30.245Z,0.70
2019-05-26T12:20:59.590Z,0.60
2019-05-26T12:23:28.953Z,0.70
2019-05-26T12:25:58.271Z,0.63
2019-05-26T12:28:27.604Z,0.72
2019-05-26T12:30:56.997Z,0.70
2019-05-26T12:33:26.309Z,0.50
2019-05-26T12:35:55.728Z,0.35
2019-05-26T12:38:25.070Z,0.85
2019-05-26T12:40:54.560Z,0.95
2019-05-26T12:43:23.871Z,0.60
2019-05-26T12:45:53.235Z,0.50
2019-05-26T12:48:22.603Z,0.45
2019-05-26T12:50:51.962Z,0.80
2019-05-26T12:53:21.358Z,0.47
2019-05-26T12:55:50.682Z,1.02
2019-05-26T12:58:20.045Z,0.70
2019-05-26T13:00:53.850Z,0.60
2019-05-26T13:03:20.451Z,0.50
2019-05-26T13:05:49.809Z,0.70
2019-05-26T13:11:07.444Z,0.60
2019-05-26T13:13:37.080Z,0.70
2019-05-26T13:16:45.743Z,0.78
2019-05-26T13:19:15.084Z,0.70
2019-05-26T13:21:44.416Z,0.60
2019-05-26T13:24:14.002Z,0.70
2019-05-26T13:26:43.305Z,0.82
2019-05-26T13:29:12.622Z,0.70
2019-05-26T13:31:44.048Z,0.50
2019-05-26T13:36:47.949Z,0.45
2019-05-26T13:39:17.287Z,0.40
2019-05-26T13:41:46.619Z,0.70
2019-05-26T13:44:34.908Z,0.40
2019-05-26T13:47:04.221Z,0.60
2019-05-26T13:49:34.006Z,0.70
2019-05-26T13:54:38.056Z,0.70
2019-05-26T13:57:07.984Z,0.42
2019-05-26T13:59:37.277Z,0.80
2019-05-26T14:05:02.134Z,0.57
2019-05-26T14:07:31.448Z,0.80
2019-05-26T14:10:00.841Z,0.80
2019-05-26T14:12:30.158Z,0.45
2019-05-26T14:14:59.523Z,0.70
2019-05-26T14:18:08.154Z,0.70
2019-05-26T14:23:39.503Z,0.50
2019-05-26T14:26:08.830Z,0.53
2019-05-26T14:28:38.180Z,0.60
2019-05-26T14:31:07.491Z,0.73
2019-05-26T14:33:36.807Z,0.85
2019-05-26T14:36:06.210Z,0.60
2019-05-26T14:38:43.230Z,0.93
2019-05-26T14:41:06.620Z,1.00
2019-05-26T14:46:24.284Z,0.75
2019-05-26T14:48:53.602Z,0.80
2019-05-26T14:51:22.923Z,0.72
2019-05-26T14:53:52.256Z,1.00
2019-05-26T14:56:21.599Z,0.95
2019-05-26T14:58:50.954Z,0.72
2019-05-26T15:01:20.316Z,0.68
2019-05-26T15:03:49.752Z,0.57
2019-05-26T15:06:19.066Z,0.50
2019-05-26T15:08:48.455Z,0.80
2019-05-26T15:11:17.828Z,0.60
2019-05-26T15:13:47.141Z,0.47
2019-05-26T15:19:12.539Z,0.70
2019-05-26T15:21:41.885Z,0.40
2019-05-26T15:24:11.177Z,0.70
2019-05-26T15:26:40.491Z,0.40
2019-05-26T15:29:09.786Z,0.57
2019-05-26T15:31:39.104Z,0.55
2019-05-26T15:34:08.398Z,0.50
2019-05-26T15:39:26.040Z,0.95
2019-05-26T15:45:04.176Z,0.60
2019-05-26T15:47:33.509Z,0.47
2019-05-26T15:50:02.823Z,0.50
2019-05-26T15:52:51.095Z,0.33
2019-05-26T15:55:20.423Z,0.40
2019-05-26T15:57:49.789Z,0.95
2019-05-26T16:00:19.206Z,0.50
2019-05-26T16:02:48.554Z,0.70
2019-05-26T16:05:17.967Z,0.60
2019-05-26T16:07:47.295Z,0.47
2019-05-26T16:10:55.955Z,0.55
2019-05-26T16:13:25.339Z,0.53
2019-05-26T16:15:54.619Z,0.82
2019-05-26T16:18:23.964Z,0.57
2019-05-26T16:21:02.685Z,0.65
2019-05-26T16:23:24.299Z,0.70
2019-05-26T16:25:53.610Z,1.15
2019-05-26T16:28:22.947Z,0.50
2019-05-26T16:30:52.274Z,0.70
2019-05-26T16:33:21.593Z,0.50
2019-05-26T16:35:50.996Z,0.78
2019-05-26T16:38:20.326Z,0.70
2019-05-26T16:40:49.655Z,0.90
2019-05-26T16:43:38.022Z,0.65
2019-05-26T16:46:07.604Z,0.70
2019-05-26T16:48:56.068Z,0.57
2019-05-26T16:54:13.650Z,0.50
2019-05-26T16:56:43.014Z,0.80
2019-05-26T16:59:12.357Z,0.70
2019-05-26T17:02:03.033Z,0.73
2019-05-26T17:04:32.412Z,0.80
2019-05-26T17:07:01.750Z,0.75
2019-05-26T17:09:31.348Z,0.62
2019-05-26T17:12:00.839Z,0.90
2019-05-26T17:14:30.322Z,0.70
2019-05-26T17:17:13.453Z,0.70
2019-05-26T17:19:31.283Z,0.80
2019-05-26T17:24:48.891Z,0.67
2019-05-26T17:27:18.216Z,0.53
2019-05-26T17:33:06.232Z,1.07
2019-05-26T17:35:35.575Z,0.70
2019-05-26T17:38:04.937Z,0.47
2019-05-26T17:40:34.356Z,1.20
2019-05-26T17:43:03.784Z,0.80
2019-05-26T17:45:33.128Z,0.80
2019-05-26T17:48:02.444Z,0.75
2019-05-26T17:50:31.749Z,0.60
2019-05-26T17:53:20.223Z,0.70
2019-05-26T17:55:49.521Z,0.68
2019-05-26T17:58:18.938Z,0.72
2019-05-26T18:00:48.250Z,0.80
2019-05-26T18:03:17.603Z,0.60
2019-05-26T18:05:46.916Z,0.70
2019-05-26T18:08:16.285Z,0.90
2019-05-26T18:10:45.603Z,0.70
2019-05-26T18:13:14.984Z,0.80
2019-05-26T18:15:44.284Z,0.80
2019-05-26T18:18:13.634Z,0.77
2019-05-26T18:21:02.040Z,0.70
2019-05-26T18:23:31.373Z,0.67
2019-05-26T18:26:00.720Z,0.90
2019-05-26T18:28:30.064Z,1.07
2019-05-26T18:30:59.366Z,0.63
2019-05-26T18:33:28.720Z,0.63
2019-05-26T18:36:37.345Z,0.70
2019-05-26T18:39:08.581Z,0.67
2019-05-26T18:41:37.939Z,0.83
2019-05-26T18:44:07.440Z,0.70
2019-05-26T18:46:36.723Z,0.80
2019-05-26T18:49:06.089Z,0.90
2019-05-26T18:51:35.432Z,0.83
2019-05-26T18:54:04.857Z,0.73
2019-05-26T18:56:34.159Z,0.93
2019-05-26T18:59:03.556Z,0.73
2019-05-26T19:01:33.125Z,0.90
2019-05-26T19:04:02.468Z,0.67
2019-05-26T19:06:31.757Z,0.70
2019-05-26T19:09:01.045Z,0.70
2019-05-26T19:11:30.368Z,0.80
2019-05-26T19:13:59.665Z,0.90
2019-05-26T19:16:29.068Z,0.93
2019-05-26T19:18:58.372Z,0.80
2019-05-26T19:21:46.720Z,1.00
2019-05-26T19:24:16.038Z,0.77
2019-05-26T19:26:45.325Z,0.73
2019-05-26T19:29:33.582Z,0.83
2019-05-26T19:32:21.826Z,0.67
2019-05-26T19:34:51.179Z,1.00
2019-05-26T19:37:20.459Z,1.00
2019-05-26T19:39:49.798Z,0.70
2019-05-26T19:44:55.186Z,0.77
2019-05-26T19:47:24.463Z,0.90
2019-05-26T19:49:53.807Z,0.83
2019-05-26T19:52:23.118Z,0.93
2019-05-26T19:54:52.432Z,0.87
2019-05-26T19:57:21.806Z,0.87
2019-05-26T19:59:51.101Z,1.00
2019-05-26T20:02:20.413Z,1.10
2019-05-26T20:04:49.726Z,0.90
2019-05-26T20:07:19.118Z,0.77
2019-05-26T20:09:48.377Z,0.67
2019-05-26T20:12:17.670Z,0.63
2019-05-26T20:14:46.959Z,0.90
2019-05-26T20:17:16.373Z,0.70
2019-05-26T20:19:45.713Z,0.90
2019-05-26T20:22:33.962Z,0.50
2019-05-26T20:25:03.267Z,1.20
2019-05-26T20:27:32.548Z,0.77
2019-05-26T20:30:01.909Z,1.00
2019-05-26T20:32:31.203Z,0.90
2019-05-26T20:35:00.508Z,0.90
2019-05-26T20:37:29.797Z,1.07
2019-05-26T20:39:59.101Z,0.60
2019-05-26T20:42:47.361Z,1.03
2019-05-26T20:48:18.180Z,0.70
2019-05-26T20:50:47.523Z,1.33
2019-05-26T20:53:16.789Z,0.80
2019-05-26T20:55:46.075Z,0.77
2019-05-26T20:58:15.366Z,0.70
2019-05-26T21:00:44.666Z,1.20
2019-05-26T21:03:14.063Z,0.90
2019-05-26T21:05:43.352Z,0.90
2019-05-26T21:08:12.710Z,0.90
2019-05-26T21:11:00.940Z,0.90
2019-05-26T21:13:30.223Z,0.83
2019-05-26T21:15:59.529Z,0.90
2019-05-26T21:18:28.804Z,0.90
2019-05-26T21:21:17.059Z,0.70
2019-05-26T21:23:47.408Z,0.90
2019-05-26T21:26:16.702Z,1.00
2019-05-26T21:28:46.544Z,1.03
2019-05-26T21:31:15.824Z,0.90
2019-05-26T21:33:45.120Z,1.00
2019-05-26T21:36:33.457Z,0.87
2019-05-26T21:39:02.784Z,1.10
2019-05-26T21:41:32.058Z,0.80
2019-05-26T21:44:01.370Z,0.70
2019-05-26T21:46:30.673Z,1.27
2019-05-26T21:48:59.953Z,0.60
2019-05-26T21:54:19.841Z,0.90
2019-05-26T21:56:49.123Z,0.63
2019-05-26T21:59:18.386Z,0.83
2019-05-26T22:01:47.666Z,1.20
2019-05-26T22:04:16.932Z,1.13
2019-05-26T22:09:20.726Z,1.10
2019-05-26T22:11:50.000Z,0.80
2019-05-26T22:14:38.328Z,0.97
2019-05-26T22:17:07.632Z,0.70
2019-05-26T22:19:36.922Z,0.80
2019-05-26T22:22:06.212Z,1.10
2019-05-26T22:24:35.515Z,0.93
2019-05-26T22:27:04.762Z,1.00
2019-05-26T22:29:34.060Z,0.90
2019-05-26T22:32:03.334Z,1.10
2019-05-26T22:34:32.625Z,0.90
2019-05-26T22:42:24.765Z,0.80
2019-05-26T22:44:54.052Z,0.83
2019-05-26T22:47:23.324Z,0.90
2019-05-26T22:49:52.597Z,1.00
2019-05-26T22:52:21.892Z,1.07
2019-05-26T22:54:51.164Z,0.73
2019-05-26T22:57:20.506Z,1.17
2019-05-26T22:59:49.785Z,0.80
2019-05-26T23:02:19.284Z,1.00
2019-05-26T23:04:48.529Z,0.97
2019-05-26T23:07:17.808Z,1.27
2019-05-26T23:09:47.097Z,0.97
2019-05-26T23:12:16.382Z,1.00
2019-05-26T23:14:45.641Z,0.77
2019-05-26T23:17:14.939Z,1.20
2019-05-26T23:19:44.202Z,0.80
2019-05-26T23:22:13.483Z,1.13
2019-05-26T23:24:42.770Z,1.40
2019-05-26T23:30:00.317Z,1.20
2019-05-26T23:37:40.972Z,1.07
2019-05-26T23:40:10.385Z,1.00
2019-05-26T23:42:39.665Z,0.87
2019-05-26T23:45:48.274Z,0.90
2019-05-26T23:48:17.569Z,1.00
2019-05-26T23:50:46.859Z,0.80
2019-05-26T23:53:16.144Z,1.00
2019-05-26T23:55:45.417Z,1.10
2019-05-26T23:58:14.702Z,1.00
